Aérodrome :
LOGIN :

S'inscrire | Disclaimer

   EN    FR    IT 

 










Légende :    VFR   VFR Marginal   IFR   IFR Intensif   IFR Très Intensif
Visi : 
Plafond : 
>= 8 km
>= 3000ft
5 à 8 km
1000 à 3000 ft
1500m à 5 km
500 à 1000 ft
800 à 1500m
200 à 500 ft
< 800m
< 200 ft
Symboles :   Orages  Brouillard  Fortes neiges  Fortes précipitations  Vent > 20 kt
SIGMETs :   Divers  Orages  Givrage  Turbulence  Onde Orograph.  Cendres Volcan.






- Altitude de l'aérodrome : 19 ft
- Code IATA : LCY


EGLC - London City

DERNIER METAR :
  • 260550Z 24005KT 9999 SCT004 11/10 Q1018

METARs EXPIRÉS :
  • 260520Z AUTO 24004KT 9999 BKN004 11/10 Q1018 REDZ
  • 260450Z AUTO 22004KT 3400 DZ BKN003 OVC025 11/10 Q1017 RERA
  • 260420Z AUTO VRB03KT 3500 -DZ FEW007 SCT011 BKN015 11/10 Q1017
  • 260350Z AUTO 22003KT 5000 -RA BKN016 OVC025 11/10 Q1017 RERA
  • 260320Z AUTO 23004KT 200V260 9999 -RA SCT022 SCT029 BKN035 11/09 Q1017

TAF TAF EGLC
Valide du 26 à 06h jusqu'au 26 à 15h UTC


260459Z 2606/2615 23007KT 9999 SCT025
TEMPO 2611/2615 5000 -RADZ BKN008
ATIS : +44 20 7646 0224



MET'MAP, la Météo Aéronautique d'un coup d'oeil ! - Copyright ORBIFLY Décembre 2007 - Disclaimer

ORBIFLY MET'MAP TEAM :

Programmation & Développement : Alexandra Zaïnal
Sur une idée originale de : Baudouin d'Aumeries
Assistance à la programmation : Marc-Olivier Méhu
Soutien technique & logistique : Manuel Goepfert

Contact : metmap@orbifly.com




SOURCES & CREDITS :

   NOAA